sensor_id;sensor_type;location;lat;lon;timestamp;P1;durP1;ratioP1;P2;durP2;ratioP2
50605;SDS011;36557;53.572;10.170;2023-12-07T00:01:10;103.63;;;32.83;;
50605;SDS011;36557;53.572;10.170;2023-12-07T00:03:36;96.60;;;31.40;;
50605;SDS011;36557;53.572;10.170;2023-12-07T00:06:02;88.63;;;30.17;;
50605;SDS011;36557;53.572;10.170;2023-12-07T00:08:28;103.40;;;31.23;;
50605;SDS011;36557;53.572;10.170;2023-12-07T00:10:53;90.90;;;30.27;;
50605;SDS011;36557;53.572;10.170;2023-12-07T00:13:19;95.82;;;31.83;;
50605;SDS011;36557;53.572;10.170;2023-12-07T00:15:45;104.78;;;31.00;;
50605;SDS011;36557;53.572;10.170;2023-12-07T00:18:10;98.72;;;31.55;;
50605;SDS011;36557;53.572;10.170;2023-12-07T00:20:36;102.30;;;32.43;;
50605;SDS011;36557;53.572;10.170;2023-12-07T00:23:02;107.63;;;31.57;;
50605;SDS011;36557;53.572;10.170;2023-12-07T00:25:28;103.05;;;32.97;;
50605;SDS011;36557;53.572;10.170;2023-12-07T00:27:54;106.38;;;32.30;;
50605;SDS011;36557;53.572;10.170;2023-12-07T00:30:19;104.87;;;33.00;;
50605;SDS011;36557;53.572;10.170;2023-12-07T00:32:46;111.18;;;33.58;;
50605;SDS011;36557;53.572;10.170;2023-12-07T00:35:11;104.40;;;33.50;;
50605;SDS011;36557;53.572;10.170;2023-12-07T00:37:37;101.05;;;33.00;;
50605;SDS011;36557;53.572;10.170;2023-12-07T00:40:03;103.45;;;33.53;;
50605;SDS011;36557;53.572;10.170;2023-12-07T00:42:30;101.35;;;33.20;;
50605;SDS011;36557;53.572;10.170;2023-12-07T00:44:55;107.00;;;33.40;;
50605;SDS011;36557;53.572;10.170;2023-12-07T00:47:21;109.10;;;34.13;;
50605;SDS011;36557;53.572;10.170;2023-12-07T00:49:47;109.33;;;34.80;;
50605;SDS011;36557;53.572;10.170;2023-12-07T00:52:13;97.90;;;32.60;;
50605;SDS011;36557;53.572;10.170;2023-12-07T00:54:39;99.55;;;32.95;;
50605;SDS011;36557;53.572;10.170;2023-12-07T00:57:05;100.78;;;33.05;;
50605;SDS011;36557;53.572;10.170;2023-12-07T00:59:31;98.07;;;32.70;;
50605;SDS011;36557;53.572;10.170;2023-12-07T01:02:04;97.82;;;33.78;;
50605;SDS011;36557;53.572;10.170;2023-12-07T01:04:31;98.72;;;33.13;;
50605;SDS011;36557;53.572;10.170;2023-12-07T01:06:57;93.83;;;31.70;;
50605;SDS011;36557;53.572;10.170;2023-12-07T01:09:23;94.40;;;32.13;;
50605;SDS011;36557;53.572;10.170;2023-12-07T01:11:49;95.57;;;33.25;;
50605;SDS011;36557;53.572;10.170;2023-12-07T01:14:16;94.00;;;31.77;;
50605;SDS011;36557;53.572;10.170;2023-12-07T01:16:42;88.45;;;31.50;;
50605;SDS011;36557;53.572;10.170;2023-12-07T01:19:09;87.40;;;32.25;;
50605;SDS011;36557;53.572;10.170;2023-12-07T01:21:35;85.28;;;31.55;;
50605;SDS011;36557;53.572;10.170;2023-12-07T01:24:01;83.97;;;31.43;;
50605;SDS011;36557;53.572;10.170;2023-12-07T01:26:27;82.53;;;30.20;;
50605;SDS011;36557;53.572;10.170;2023-12-07T01:28:53;83.43;;;31.77;;
50605;SDS011;36557;53.572;10.170;2023-12-07T01:31:18;88.68;;;31.98;;
50605;SDS011;36557;53.572;10.170;2023-12-07T01:33:44;85.03;;;31.48;;
50605;SDS011;36557;53.572;10.170;2023-12-07T01:36:10;88.88;;;29.63;;
50605;SDS011;36557;53.572;10.170;2023-12-07T01:38:36;84.70;;;31.70;;
50605;SDS011;36557;53.572;10.170;2023-12-07T01:41:02;88.18;;;32.08;;
50605;SDS011;36557;53.572;10.170;2023-12-07T01:43:27;83.40;;;32.17;;
50605;SDS011;36557;53.572;10.170;2023-12-07T01:45:54;79.85;;;31.20;;
50605;SDS011;36557;53.572;10.170;2023-12-07T01:48:22;88.18;;;32.08;;
50605;SDS011;36557;53.572;10.170;2023-12-07T01:50:51;84.00;;;31.70;;
50605;SDS011;36557;53.572;10.170;2023-12-07T01:53:18;85.45;;;31.98;;
50605;SDS011;36557;53.572;10.170;2023-12-07T01:55:46;81.50;;;30.63;;
50605;SDS011;36557;53.572;10.170;2023-12-07T01:58:12;80.57;;;31.13;;
50605;SDS011;36557;53.572;10.170;2023-12-07T02:00:42;85.50;;;31.95;;
50605;SDS011;36557;53.572;10.170;2023-12-07T02:03:07;84.25;;;32.47;;
50605;SDS011;36557;53.572;10.170;2023-12-07T02:05:34;78.18;;;31.58;;
50605;SDS011;36557;53.572;10.170;2023-12-07T02:08:00;75.65;;;29.83;;
50605;SDS011;36557;53.572;10.170;2023-12-07T02:10:26;80.03;;;31.25;;
50605;SDS011;36557;53.572;10.170;2023-12-07T02:12:52;78.60;;;32.10;;
50605;SDS011;36557;53.572;10.170;2023-12-07T02:15:19;81.90;;;31.10;;
50605;SDS011;36557;53.572;10.170;2023-12-07T02:18:06;78.30;;;31.63;;
50605;SDS011;36557;53.572;10.170;2023-12-07T02:21:04;77.38;;;30.20;;
50605;SDS011;36557;53.572;10.170;2023-12-07T02:23:41;78.45;;;31.05;;
50605;SDS011;36557;53.572;10.170;2023-12-07T02:26:08;74.72;;;29.52;;
50605;SDS011;36557;53.572;10.170;2023-12-07T02:28:35;78.22;;;30.50;;
50605;SDS011;36557;53.572;10.170;2023-12-07T02:31:01;69.82;;;29.17;;
50605;SDS011;36557;53.572;10.170;2023-12-07T02:33:26;67.60;;;28.70;;
50605;SDS011;36557;53.572;10.170;2023-12-07T02:35:52;75.80;;;29.67;;
50605;SDS011;36557;53.572;10.170;2023-12-07T02:38:18;74.35;;;30.58;;
50605;SDS011;36557;53.572;10.170;2023-12-07T02:40:47;70.38;;;29.40;;
50605;SDS011;36557;53.572;10.170;2023-12-07T02:43:14;70.15;;;29.15;;
50605;SDS011;36557;53.572;10.170;2023-12-07T02:45:40;77.63;;;30.08;;
50605;SDS011;36557;53.572;10.170;2023-12-07T02:48:06;68.65;;;29.05;;
50605;SDS011;36557;53.572;10.170;2023-12-07T02:50:32;71.13;;;30.50;;
50605;SDS011;36557;53.572;10.170;2023-12-07T02:52:58;66.67;;;29.67;;
50605;SDS011;36557;53.572;10.170;2023-12-07T02:55:23;71.05;;;29.55;;
50605;SDS011;36557;53.572;10.170;2023-12-07T02:57:49;69.78;;;29.52;;
50605;SDS011;36557;53.572;10.170;2023-12-07T03:00:16;70.05;;;29.77;;
50605;SDS011;36557;53.572;10.170;2023-12-07T03:02:42;71.50;;;29.25;;
50605;SDS011;36557;53.572;10.170;2023-12-07T03:05:07;74.35;;;30.38;;
50605;SDS011;36557;53.572;10.170;2023-12-07T03:07:34;76.22;;;31.27;;
50605;SDS011;36557;53.572;10.170;2023-12-07T03:10:00;75.00;;;30.55;;
50605;SDS011;36557;53.572;10.170;2023-12-07T03:12:25;70.75;;;29.77;;
50605;SDS011;36557;53.572;10.170;2023-12-07T03:14:51;78.15;;;30.35;;
50605;SDS011;36557;53.572;10.170;2023-12-07T03:17:18;78.70;;;30.48;;
50605;SDS011;36557;53.572;10.170;2023-12-07T03:19:44;80.00;;;30.35;;
50605;SDS011;36557;53.572;10.170;2023-12-07T03:22:09;74.07;;;30.17;;
50605;SDS011;36557;53.572;10.170;2023-12-07T03:24:36;72.63;;;29.30;;
50605;SDS011;36557;53.572;10.170;2023-12-07T03:27:02;74.63;;;29.95;;
50605;SDS011;36557;53.572;10.170;2023-12-07T03:29:28;79.93;;;30.02;;
50605;SDS011;36557;53.572;10.170;2023-12-07T03:31:54;78.40;;;30.10;;
50605;SDS011;36557;53.572;10.170;2023-12-07T03:34:20;68.57;;;28.65;;
50605;SDS011;36557;53.572;10.170;2023-12-07T03:36:46;75.25;;;29.30;;
50605;SDS011;36557;53.572;10.170;2023-12-07T03:39:13;72.65;;;29.52;;
50605;SDS011;36557;53.572;10.170;2023-12-07T03:41:39;71.93;;;29.25;;
50605;SDS011;36557;53.572;10.170;2023-12-07T03:44:05;70.13;;;28.40;;
50605;SDS011;36557;53.572;10.170;2023-12-07T03:46:30;76.73;;;29.53;;
50605;SDS011;36557;53.572;10.170;2023-12-07T03:48:56;75.27;;;29.53;;
50605;SDS011;36557;53.572;10.170;2023-12-07T03:51:22;71.43;;;28.55;;
50605;SDS011;36557;53.572;10.170;2023-12-07T03:53:47;76.90;;;29.30;;
50605;SDS011;36557;53.572;10.170;2023-12-07T03:56:26;69.47;;;27.80;;
50605;SDS011;36557;53.572;10.170;2023-12-07T03:58:53;73.70;;;28.57;;
50605;SDS011;36557;53.572;10.170;2023-12-07T04:01:26;74.28;;;29.67;;
50605;SDS011;36557;53.572;10.170;2023-12-07T04:03:53;66.55;;;28.67;;
50605;SDS011;36557;53.572;10.170;2023-12-07T04:06:20;66.95;;;28.23;;
50605;SDS011;36557;53.572;10.170;2023-12-07T04:08:46;73.28;;;29.02;;
50605;SDS011;36557;53.572;10.170;2023-12-07T04:11:13;67.15;;;28.15;;
50605;SDS011;36557;53.572;10.170;2023-12-07T04:13:39;67.13;;;28.43;;
50605;SDS011;36557;53.572;10.170;2023-12-07T04:16:06;69.00;;;28.10;;
50605;SDS011;36557;53.572;10.170;2023-12-07T04:18:33;65.57;;;27.25;;
50605;SDS011;36557;53.572;10.170;2023-12-07T04:20:58;65.40;;;28.77;;
50605;SDS011;36557;53.572;10.170;2023-12-07T04:23:24;64.37;;;26.90;;
50605;SDS011;36557;53.572;10.170;2023-12-07T04:25:50;68.57;;;28.33;;
50605;SDS011;36557;53.572;10.170;2023-12-07T04:28:16;70.38;;;27.98;;
50605;SDS011;36557;53.572;10.170;2023-12-07T04:30:42;65.03;;;27.80;;
50605;SDS011;36557;53.572;10.170;2023-12-07T04:33:07;64.70;;;28.70;;
50605;SDS011;36557;53.572;10.170;2023-12-07T04:35:34;66.80;;;27.70;;
50605;SDS011;36557;53.572;10.170;2023-12-07T04:38:00;69.95;;;29.95;;
50605;SDS011;36557;53.572;10.170;2023-12-07T04:40:26;62.80;;;26.70;;
50605;SDS011;36557;53.572;10.170;2023-12-07T04:42:52;70.03;;;27.25;;
50605;SDS011;36557;53.572;10.170;2023-12-07T04:45:18;63.25;;;27.98;;
50605;SDS011;36557;53.572;10.170;2023-12-07T04:47:43;67.47;;;29.50;;
50605;SDS011;36557;53.572;10.170;2023-12-07T04:50:10;66.22;;;27.20;;
50605;SDS011;36557;53.572;10.170;2023-12-07T04:52:36;68.83;;;29.97;;
50605;SDS011;36557;53.572;10.170;2023-12-07T04:55:01;68.72;;;28.58;;
50605;SDS011;36557;53.572;10.170;2023-12-07T04:57:27;71.60;;;28.33;;
50605;SDS011;36557;53.572;10.170;2023-12-07T04:59:53;71.63;;;29.03;;
50605;SDS011;36557;53.572;10.170;2023-12-07T05:02:19;69.13;;;28.10;;
50605;SDS011;36557;53.572;10.170;2023-12-07T05:04:45;67.82;;;28.83;;
50605;SDS011;36557;53.572;10.170;2023-12-07T05:07:13;66.68;;;29.00;;
50605;SDS011;36557;53.572;10.170;2023-12-07T05:09:39;66.40;;;28.48;;
50605;SDS011;36557;53.572;10.170;2023-12-07T05:12:08;60.58;;;28.45;;
50605;SDS011;36557;53.572;10.170;2023-12-07T05:14:34;64.18;;;28.00;;
50605;SDS011;36557;53.572;10.170;2023-12-07T05:17:03;64.75;;;28.60;;
50605;SDS011;36557;53.572;10.170;2023-12-07T05:19:30;63.15;;;27.63;;
50605;SDS011;36557;53.572;10.170;2023-12-07T05:21:55;66.57;;;28.35;;
50605;SDS011;36557;53.572;10.170;2023-12-07T05:24:22;64.20;;;27.80;;
50605;SDS011;36557;53.572;10.170;2023-12-07T05:26:47;56.53;;;26.40;;
50605;SDS011;36557;53.572;10.170;2023-12-07T05:29:14;62.22;;;26.70;;
50605;SDS011;36557;53.572;10.170;2023-12-07T05:31:40;58.80;;;27.08;;
50605;SDS011;36557;53.572;10.170;2023-12-07T05:34:06;58.80;;;26.60;;
50605;SDS011;36557;53.572;10.170;2023-12-07T05:36:32;63.70;;;28.20;;
50605;SDS011;36557;53.572;10.170;2023-12-07T05:38:58;57.25;;;25.75;;
50605;SDS011;36557;53.572;10.170;2023-12-07T05:41:24;58.25;;;26.75;;
50605;SDS011;36557;53.572;10.170;2023-12-07T05:43:50;59.10;;;26.65;;
50605;SDS011;36557;53.572;10.170;2023-12-07T05:46:17;56.22;;;26.20;;
50605;SDS011;36557;53.572;10.170;2023-12-07T05:48:46;56.33;;;25.90;;
50605;SDS011;36557;53.572;10.170;2023-12-07T05:51:16;54.42;;;25.30;;
50605;SDS011;36557;53.572;10.170;2023-12-07T05:53:43;56.47;;;26.20;;
50605;SDS011;36557;53.572;10.170;2023-12-07T05:56:09;49.70;;;24.48;;
50605;SDS011;36557;53.572;10.170;2023-12-07T05:58:36;51.65;;;25.00;;
50605;SDS011;36557;53.572;10.170;2023-12-07T06:01:01;57.43;;;25.83;;
50605;SDS011;36557;53.572;10.170;2023-12-07T06:03:28;50.42;;;24.77;;
50605;SDS011;36557;53.572;10.170;2023-12-07T06:05:54;51.88;;;24.88;;
50605;SDS011;36557;53.572;10.170;2023-12-07T06:08:20;50.85;;;25.52;;
50605;SDS011;36557;53.572;10.170;2023-12-07T06:10:46;52.90;;;26.60;;
50605;SDS011;36557;53.572;10.170;2023-12-07T06:13:12;52.67;;;25.90;;
50605;SDS011;36557;53.572;10.170;2023-12-07T06:15:38;52.03;;;27.27;;
50605;SDS011;36557;53.572;10.170;2023-12-07T06:18:05;51.80;;;26.80;;
50605;SDS011;36557;53.572;10.170;2023-12-07T06:20:30;51.45;;;25.38;;
50605;SDS011;36557;53.572;10.170;2023-12-07T06:22:57;51.03;;;25.85;;
50605;SDS011;36557;53.572;10.170;2023-12-07T06:25:23;50.03;;;26.67;;
50605;SDS011;36557;53.572;10.170;2023-12-07T06:27:49;49.13;;;24.90;;
50605;SDS011;36557;53.572;10.170;2023-12-07T06:30:15;51.95;;;25.17;;
50605;SDS011;36557;53.572;10.170;2023-12-07T06:32:41;46.78;;;23.30;;
50605;SDS011;36557;53.572;10.170;2023-12-07T06:35:07;50.28;;;26.10;;
50605;SDS011;36557;53.572;10.170;2023-12-07T06:37:33;46.83;;;25.70;;
50605;SDS011;36557;53.572;10.170;2023-12-07T06:39:59;49.03;;;24.77;;
50605;SDS011;36557;53.572;10.170;2023-12-07T06:42:25;48.53;;;24.47;;
50605;SDS011;36557;53.572;10.170;2023-12-07T06:44:51;49.15;;;24.95;;
50605;SDS011;36557;53.572;10.170;2023-12-07T06:47:17;49.15;;;24.55;;
50605;SDS011;36557;53.572;10.170;2023-12-07T06:49:43;48.23;;;24.67;;
50605;SDS011;36557;53.572;10.170;2023-12-07T06:52:11;50.33;;;25.35;;
50605;SDS011;36557;53.572;10.170;2023-12-07T06:54:37;54.90;;;25.93;;
50605;SDS011;36557;53.572;10.170;2023-12-07T06:57:06;48.10;;;24.73;;
50605;SDS011;36557;53.572;10.170;2023-12-07T06:59:32;49.00;;;25.37;;
50605;SDS011;36557;53.572;10.170;2023-12-07T07:01:58;48.22;;;24.30;;
50605;SDS011;36557;53.572;10.170;2023-12-07T07:04:24;50.72;;;25.40;;
50605;SDS011;36557;53.572;10.170;2023-12-07T07:06:49;53.83;;;27.05;;
50605;SDS011;36557;53.572;10.170;2023-12-07T07:09:16;52.60;;;25.70;;
50605;SDS011;36557;53.572;10.170;2023-12-07T07:11:42;53.13;;;25.53;;
50605;SDS011;36557;53.572;10.170;2023-12-07T07:14:12;51.75;;;26.25;;
50605;SDS011;36557;53.572;10.170;2023-12-07T07:16:38;50.78;;;26.38;;
50605;SDS011;36557;53.572;10.170;2023-12-07T07:19:03;52.15;;;25.95;;
50605;SDS011;36557;53.572;10.170;2023-12-07T07:21:29;51.57;;;25.57;;
50605;SDS011;36557;53.572;10.170;2023-12-07T07:23:55;51.63;;;25.30;;
50605;SDS011;36557;53.572;10.170;2023-12-07T07:26:21;49.10;;;24.35;;
50605;SDS011;36557;53.572;10.170;2023-12-07T07:28:47;48.28;;;24.75;;
50605;SDS011;36557;53.572;10.170;2023-12-07T07:31:12;48.67;;;24.47;;
50605;SDS011;36557;53.572;10.170;2023-12-07T07:33:38;48.87;;;25.00;;
50605;SDS011;36557;53.572;10.170;2023-12-07T07:36:04;45.33;;;23.90;;
50605;SDS011;36557;53.572;10.170;2023-12-07T07:38:30;48.47;;;23.98;;
50605;SDS011;36557;53.572;10.170;2023-12-07T07:40:55;48.47;;;24.58;;
50605;SDS011;36557;53.572;10.170;2023-12-07T07:43:21;50.95;;;25.17;;
50605;SDS011;36557;53.572;10.170;2023-12-07T07:45:47;52.58;;;26.60;;
50605;SDS011;36557;53.572;10.170;2023-12-07T07:48:12;68.70;;;33.67;;
50605;SDS011;36557;53.572;10.170;2023-12-07T07:50:38;49.13;;;25.83;;
50605;SDS011;36557;53.572;10.170;2023-12-07T07:53:04;49.17;;;24.60;;
50605;SDS011;36557;53.572;10.170;2023-12-07T07:55:30;47.73;;;24.63;;
50605;SDS011;36557;53.572;10.170;2023-12-07T07:57:56;49.88;;;24.88;;
50605;SDS011;36557;53.572;10.170;2023-12-07T08:00:22;51.27;;;24.93;;
50605;SDS011;36557;53.572;10.170;2023-12-07T08:02:50;48.58;;;25.02;;
50605;SDS011;36557;53.572;10.170;2023-12-07T08:05:16;48.97;;;24.93;;
50605;SDS011;36557;53.572;10.170;2023-12-07T08:07:42;48.50;;;24.80;;
50605;SDS011;36557;53.572;10.170;2023-12-07T08:10:08;50.23;;;25.90;;
50605;SDS011;36557;53.572;10.170;2023-12-07T08:12:34;49.70;;;25.13;;
50605;SDS011;36557;53.572;10.170;2023-12-07T08:15:00;50.85;;;25.90;;
50605;SDS011;36557;53.572;10.170;2023-12-07T08:17:26;47.45;;;24.65;;
50605;SDS011;36557;53.572;10.170;2023-12-07T08:19:52;48.78;;;25.20;;
50605;SDS011;36557;53.572;10.170;2023-12-07T08:22:18;49.25;;;25.58;;
50605;SDS011;36557;53.572;10.170;2023-12-07T08:24:45;52.83;;;29.20;;
50605;SDS011;36557;53.572;10.170;2023-12-07T08:27:11;62.08;;;31.23;;
50605;SDS011;36557;53.572;10.170;2023-12-07T08:29:36;72.95;;;37.42;;
50605;SDS011;36557;53.572;10.170;2023-12-07T08:32:02;68.30;;;39.08;;
50605;SDS011;36557;53.572;10.170;2023-12-07T08:34:28;59.33;;;30.80;;
50605;SDS011;36557;53.572;10.170;2023-12-07T08:36:55;67.90;;;35.80;;
50605;SDS011;36557;53.572;10.170;2023-12-07T08:39:21;65.03;;;35.30;;
50605;SDS011;36557;53.572;10.170;2023-12-07T08:41:46;65.30;;;34.50;;
50605;SDS011;36557;53.572;10.170;2023-12-07T08:44:12;61.45;;;32.75;;
50605;SDS011;36557;53.572;10.170;2023-12-07T08:46:38;56.50;;;28.85;;
50605;SDS011;36557;53.572;10.170;2023-12-07T08:49:03;56.03;;;29.47;;
50605;SDS011;36557;53.572;10.170;2023-12-07T08:51:29;57.27;;;28.73;;
50605;SDS011;36557;53.572;10.170;2023-12-07T08:53:55;52.57;;;27.20;;
50605;SDS011;36557;53.572;10.170;2023-12-07T08:56:21;57.47;;;27.03;;
50605;SDS011;36557;53.572;10.170;2023-12-07T08:58:46;55.70;;;27.83;;
50605;SDS011;36557;53.572;10.170;2023-12-07T09:01:12;52.33;;;26.40;;
50605;SDS011;36557;53.572;10.170;2023-12-07T09:03:38;51.33;;;26.65;;
50605;SDS011;36557;53.572;10.170;2023-12-07T09:06:04;56.83;;;29.30;;
50605;SDS011;36557;53.572;10.170;2023-12-07T09:08:31;59.15;;;30.27;;
50605;SDS011;36557;53.572;10.170;2023-12-07T09:10:56;64.57;;;33.30;;
50605;SDS011;36557;53.572;10.170;2023-12-07T09:13:22;54.85;;;28.75;;
50605;SDS011;36557;53.572;10.170;2023-12-07T09:15:48;54.00;;;28.50;;
50605;SDS011;36557;53.572;10.170;2023-12-07T09:18:13;54.87;;;29.10;;
50605;SDS011;36557;53.572;10.170;2023-12-07T09:20:39;51.53;;;27.17;;
50605;SDS011;36557;53.572;10.170;2023-12-07T09:23:10;53.77;;;27.30;;
50605;SDS011;36557;53.572;10.170;2023-12-07T09:25:40;55.33;;;28.95;;
50605;SDS011;36557;53.572;10.170;2023-12-07T09:28:06;58.22;;;29.13;;
50605;SDS011;36557;53.572;10.170;2023-12-07T09:30:32;57.70;;;28.60;;
50605;SDS011;36557;53.572;10.170;2023-12-07T09:32:59;50.70;;;27.63;;
50605;SDS011;36557;53.572;10.170;2023-12-07T09:35:24;54.17;;;28.10;;
50605;SDS011;36557;53.572;10.170;2023-12-07T09:37:50;49.80;;;26.97;;
50605;SDS011;36557;53.572;10.170;2023-12-07T09:40:17;51.43;;;28.27;;
50605;SDS011;36557;53.572;10.170;2023-12-07T09:42:45;52.30;;;27.27;;
50605;SDS011;36557;53.572;10.170;2023-12-07T09:45:11;51.67;;;27.23;;
50605;SDS011;36557;53.572;10.170;2023-12-07T09:47:39;48.55;;;26.25;;
50605;SDS011;36557;53.572;10.170;2023-12-07T09:50:07;54.55;;;29.25;;
50605;SDS011;36557;53.572;10.170;2023-12-07T09:52:34;49.33;;;27.80;;
50605;SDS011;36557;53.572;10.170;2023-12-07T09:55:03;52.83;;;28.67;;
50605;SDS011;36557;53.572;10.170;2023-12-07T09:57:29;55.00;;;28.83;;
50605;SDS011;36557;53.572;10.170;2023-12-07T09:59:55;49.95;;;28.55;;
50605;SDS011;36557;53.572;10.170;2023-12-07T10:02:21;51.65;;;27.50;;
50605;SDS011;36557;53.572;10.170;2023-12-07T10:04:48;54.08;;;28.48;;
50605;SDS011;36557;53.572;10.170;2023-12-07T10:07:34;54.40;;;28.92;;
50605;SDS011;36557;53.572;10.170;2023-12-07T10:10:02;53.40;;;28.67;;
50605;SDS011;36557;53.572;10.170;2023-12-07T10:12:32;52.97;;;28.65;;
50605;SDS011;36557;53.572;10.170;2023-12-07T10:15:00;54.75;;;28.77;;
50605;SDS011;36557;53.572;10.170;2023-12-07T10:20:25;56.38;;;30.17;;
50605;SDS011;36557;53.572;10.170;2023-12-07T10:23:06;59.80;;;30.33;;
50605;SDS011;36557;53.572;10.170;2023-12-07T10:25:40;57.35;;;29.30;;
50605;SDS011;36557;53.572;10.170;2023-12-07T10:28:09;58.33;;;29.30;;
50605;SDS011;36557;53.572;10.170;2023-12-07T10:30:37;59.78;;;29.70;;
50605;SDS011;36557;53.572;10.170;2023-12-07T10:33:05;57.45;;;29.83;;
50605;SDS011;36557;53.572;10.170;2023-12-07T10:35:41;61.72;;;31.23;;
50605;SDS011;36557;53.572;10.170;2023-12-07T10:38:08;63.47;;;30.67;;
50605;SDS011;36557;53.572;10.170;2023-12-07T10:40:34;61.35;;;30.40;;
50605;SDS011;36557;53.572;10.170;2023-12-07T10:43:00;62.28;;;31.23;;
50605;SDS011;36557;53.572;10.170;2023-12-07T10:45:30;57.28;;;30.58;;
50605;SDS011;36557;53.572;10.170;2023-12-07T10:48:03;62.55;;;31.25;;
50605;SDS011;36557;53.572;10.170;2023-12-07T10:50:36;60.28;;;30.23;;
50605;SDS011;36557;53.572;10.170;2023-12-07T10:53:10;57.50;;;28.67;;
50605;SDS011;36557;53.572;10.170;2023-12-07T10:55:49;58.45;;;29.70;;
50605;SDS011;36557;53.572;10.170;2023-12-07T10:58:20;59.78;;;30.20;;
50605;SDS011;36557;53.572;10.170;2023-12-07T11:00:50;59.28;;;30.23;;
50605;SDS011;36557;53.572;10.170;2023-12-07T11:03:17;58.92;;;30.17;;
50605;SDS011;36557;53.572;10.170;2023-12-07T11:05:47;57.53;;;29.37;;
50605;SDS011;36557;53.572;10.170;2023-12-07T11:11:21;61.30;;;30.83;;
50605;SDS011;36557;53.572;10.170;2023-12-07T11:16:37;60.80;;;30.27;;
50605;SDS011;36557;53.572;10.170;2023-12-07T11:22:04;65.90;;;32.35;;
50605;SDS011;36557;53.572;10.170;2023-12-07T11:24:31;65.53;;;33.72;;
50605;SDS011;36557;53.572;10.170;2023-12-07T11:26:57;64.05;;;33.15;;
50605;SDS011;36557;53.572;10.170;2023-12-07T11:29:23;68.43;;;33.90;;
50605;SDS011;36557;53.572;10.170;2023-12-07T11:31:50;63.85;;;32.92;;
50605;SDS011;36557;53.572;10.170;2023-12-07T11:37:01;60.25;;;31.08;;
50605;SDS011;36557;53.572;10.170;2023-12-07T11:39:28;63.75;;;32.53;;
50605;SDS011;36557;53.572;10.170;2023-12-07T11:41:55;70.82;;;34.92;;
50605;SDS011;36557;53.572;10.170;2023-12-07T11:47:03;62.90;;;31.70;;
50605;SDS011;36557;53.572;10.170;2023-12-07T11:49:29;59.92;;;31.40;;
50605;SDS011;36557;53.572;10.170;2023-12-07T11:51:56;61.63;;;30.13;;
50605;SDS011;36557;53.572;10.170;2023-12-07T11:54:23;60.85;;;30.90;;
50605;SDS011;36557;53.572;10.170;2023-12-07T11:56:52;63.03;;;31.73;;
50605;SDS011;36557;53.572;10.170;2023-12-07T11:59:22;58.95;;;30.65;;
50605;SDS011;36557;53.572;10.170;2023-12-07T12:01:50;58.38;;;29.92;;
50605;SDS011;36557;53.572;10.170;2023-12-07T12:04:17;54.97;;;28.60;;
50605;SDS011;36557;53.572;10.170;2023-12-07T12:06:43;54.70;;;29.25;;
50605;SDS011;36557;53.572;10.170;2023-12-07T12:09:12;54.22;;;28.80;;
50605;SDS011;36557;53.572;10.170;2023-12-07T12:11:48;54.90;;;28.80;;
50605;SDS011;36557;53.572;10.170;2023-12-07T12:14:15;58.50;;;30.63;;
50605;SDS011;36557;53.572;10.170;2023-12-07T12:16:42;70.10;;;35.95;;
50605;SDS011;36557;53.572;10.170;2023-12-07T12:19:11;58.75;;;29.45;;
50605;SDS011;36557;53.572;10.170;2023-12-07T12:21:37;55.38;;;28.83;;
50605;SDS011;36557;53.572;10.170;2023-12-07T12:24:06;56.43;;;30.10;;
50605;SDS011;36557;53.572;10.170;2023-12-07T12:26:35;55.17;;;28.77;;
50605;SDS011;36557;53.572;10.170;2023-12-07T12:29:04;59.17;;;30.83;;
50605;SDS011;36557;53.572;10.170;2023-12-07T12:31:30;60.23;;;29.97;;
50605;SDS011;36557;53.572;10.170;2023-12-07T12:33:57;58.97;;;30.75;;
50605;SDS011;36557;53.572;10.170;2023-12-07T12:36:23;62.47;;;32.93;;
50605;SDS011;36557;53.572;10.170;2023-12-07T12:38:52;57.08;;;30.75;;
50605;SDS011;36557;53.572;10.170;2023-12-07T12:41:21;57.87;;;29.63;;
50605;SDS011;36557;53.572;10.170;2023-12-07T12:43:48;58.03;;;30.45;;
50605;SDS011;36557;53.572;10.170;2023-12-07T12:46:14;58.97;;;29.80;;
50605;SDS011;36557;53.572;10.170;2023-12-07T12:51:20;56.70;;;29.55;;
50605;SDS011;36557;53.572;10.170;2023-12-07T12:53:48;60.90;;;30.75;;
50605;SDS011;36557;53.572;10.170;2023-12-07T12:56:15;62.33;;;32.72;;
50605;SDS011;36557;53.572;10.170;2023-12-07T12:58:41;61.75;;;32.08;;
50605;SDS011;36557;53.572;10.170;2023-12-07T13:01:07;61.03;;;30.52;;
50605;SDS011;36557;53.572;10.170;2023-12-07T13:03:33;57.15;;;29.42;;
50605;SDS011;36557;53.572;10.170;2023-12-07T13:05:59;54.97;;;28.47;;
50605;SDS011;36557;53.572;10.170;2023-12-07T13:08:25;53.83;;;27.20;;
50605;SDS011;36557;53.572;10.170;2023-12-07T13:10:50;48.75;;;25.92;;
50605;SDS011;36557;53.572;10.170;2023-12-07T13:13:17;49.88;;;26.08;;
50605;SDS011;36557;53.572;10.170;2023-12-07T13:15:42;44.23;;;24.87;;
50605;SDS011;36557;53.572;10.170;2023-12-07T13:18:08;45.83;;;24.95;;
50605;SDS011;36557;53.572;10.170;2023-12-07T13:20:34;44.95;;;23.50;;
50605;SDS011;36557;53.572;10.170;2023-12-07T13:23:03;45.17;;;24.50;;
50605;SDS011;36557;53.572;10.170;2023-12-07T13:25:29;43.30;;;23.40;;
50605;SDS011;36557;53.572;10.170;2023-12-07T13:27:55;41.20;;;23.27;;
50605;SDS011;36557;53.572;10.170;2023-12-07T13:30:21;46.17;;;24.23;;
50605;SDS011;36557;53.572;10.170;2023-12-07T13:32:47;43.03;;;24.37;;
50605;SDS011;36557;53.572;10.170;2023-12-07T13:35:13;41.30;;;23.83;;
50605;SDS011;36557;53.572;10.170;2023-12-07T13:37:38;41.10;;;23.47;;
50605;SDS011;36557;53.572;10.170;2023-12-07T13:40:05;42.60;;;23.17;;
50605;SDS011;36557;53.572;10.170;2023-12-07T13:42:35;39.00;;;21.42;;
50605;SDS011;36557;53.572;10.170;2023-12-07T13:45:02;36.53;;;21.30;;
50605;SDS011;36557;53.572;10.170;2023-12-07T13:47:28;40.90;;;22.30;;
50605;SDS011;36557;53.572;10.170;2023-12-07T13:49:59;38.28;;;21.55;;
50605;SDS011;36557;53.572;10.170;2023-12-07T13:52:26;41.05;;;21.70;;
50605;SDS011;36557;53.572;10.170;2023-12-07T13:54:53;37.15;;;22.38;;
50605;SDS011;36557;53.572;10.170;2023-12-07T13:57:20;38.50;;;22.23;;
50605;SDS011;36557;53.572;10.170;2023-12-07T13:59:46;42.03;;;23.23;;
50605;SDS011;36557;53.572;10.170;2023-12-07T14:02:12;39.67;;;21.40;;
50605;SDS011;36557;53.572;10.170;2023-12-07T14:04:38;40.50;;;22.30;;
50605;SDS011;36557;53.572;10.170;2023-12-07T14:07:13;38.43;;;22.60;;
50605;SDS011;36557;53.572;10.170;2023-12-07T14:09:40;37.55;;;21.35;;
50605;SDS011;36557;53.572;10.170;2023-12-07T14:12:08;38.20;;;22.03;;
50605;SDS011;36557;53.572;10.170;2023-12-07T14:14:36;40.88;;;23.70;;
50605;SDS011;36557;53.572;10.170;2023-12-07T14:17:02;42.47;;;23.45;;
50605;SDS011;36557;53.572;10.170;2023-12-07T14:19:28;44.00;;;23.80;;
50605;SDS011;36557;53.572;10.170;2023-12-07T14:21:54;41.90;;;23.60;;
50605;SDS011;36557;53.572;10.170;2023-12-07T14:24:21;45.20;;;23.75;;
50605;SDS011;36557;53.572;10.170;2023-12-07T14:26:47;47.90;;;26.17;;